createdAt,value
2022-09-12T07:57:03.540Z,14.60
2022-09-12T08:02:07.719Z,16.70
2022-09-12T08:07:13.502Z,12.93
2022-09-12T08:12:20.261Z,16.83
2022-09-12T08:17:23.866Z,14.13
2022-09-12T08:22:27.509Z,11.52
2022-09-12T08:27:32.406Z,10.63
2022-09-12T08:32:35.931Z,8.90
2022-09-12T08:37:39.456Z,10.20
2022-09-12T08:42:55.326Z,11.20
2022-09-12T08:47:59.219Z,7.60
2022-09-12T08:53:13.798Z,7.35
2022-09-12T08:58:22.579Z,4.60
2022-09-12T09:03:50.380Z,3.25
2022-09-12T09:09:05.722Z,2.80
2022-09-12T09:14:42.462Z,3.65
2022-09-12T09:19:51.007Z,3.35
2022-09-12T09:25:00.660Z,4.22
2022-09-12T09:30:07.332Z,3.88
2022-09-12T09:35:18.734Z,5.32
2022-09-12T09:40:28.418Z,2.83
2022-09-12T09:45:33.314Z,3.38
2022-09-12T09:50:38.024Z,2.83
2022-09-12T09:56:23.217Z,2.33
2022-09-12T10:01:29.380Z,5.15
2022-09-12T10:06:34.475Z,2.13
2022-09-12T10:11:42.560Z,2.10
2022-09-12T10:16:53.498Z,3.20
2022-09-12T10:21:57.641Z,1.77
2022-09-12T10:27:09.764Z,4.85
2022-09-12T10:32:28.573Z,1.20
2022-09-12T10:37:36.803Z,1.80
2022-09-12T10:42:49.290Z,1.55
2022-09-12T10:47:55.778Z,1.90
2022-09-12T10:53:19.638Z,2.67
2022-09-12T10:58:37.498Z,3.30
2022-09-12T11:04:02.516Z,3.60
2022-09-12T11:09:16.703Z,3.40
2022-09-12T11:14:44.378Z,3.78
2022-09-12T11:20:15.901Z,3.17
2022-09-12T11:25:32.239Z,5.57
2022-09-12T11:31:09.092Z,3.33
2022-09-12T11:36:54.576Z,1.38
2022-09-12T11:43:26.471Z,3.33
2022-09-12T11:48:37.606Z,1.13
2022-09-12T11:53:45.725Z,2.55
2022-09-12T11:59:05.161Z,4.40
2022-09-12T12:04:13.928Z,4.00
2022-09-12T12:09:19.375Z,1.35
2022-09-12T12:14:27.334Z,1.13
2022-09-12T12:19:36.292Z,2.55
2022-09-12T12:31:06.330Z,1.23
2022-09-12T12:36:29.560Z,3.05
2022-09-12T12:41:46.767Z,1.73
2022-09-12T12:47:13.458Z,2.47
2022-09-12T12:52:19.686Z,1.27
2022-09-12T12:57:42.134Z,2.42
2022-09-12T13:02:53.429Z,2.33
2022-09-12T13:08:10.153Z,1.25
2022-09-12T13:13:51.039Z,3.40
2022-09-12T13:18:55.049Z,1.52
2022-09-12T13:24:06.041Z,4.93
2022-09-12T13:29:18.323Z,2.05
2022-09-12T13:34:26.053Z,2.13
2022-09-12T13:39:39.889Z,3.08
2022-09-12T13:49:57.963Z,1.25
2022-09-12T13:55:20.238Z,2.33
2022-09-12T14:00:24.417Z,2.20
2022-09-12T14:05:28.138Z,3.25
2022-09-12T14:10:35.321Z,1.95
2022-09-12T14:15:39.858Z,3.22
2022-09-12T14:20:44.715Z,3.35
2022-09-12T14:25:52.131Z,2.10
2022-09-12T14:31:01.573Z,2.63
2022-09-12T14:36:20.582Z,1.90
2022-09-12T14:41:39.486Z,3.05
2022-09-12T14:46:45.463Z,2.40
2022-09-12T14:51:56.715Z,3.08
2022-09-12T14:57:03.407Z,2.00
2022-09-12T15:02:24.254Z,2.97
2022-09-12T15:07:33.948Z,3.92
2022-09-12T15:12:38.972Z,5.70
2022-09-12T15:17:43.452Z,3.33
2022-09-12T15:22:50.613Z,3.72
2022-09-12T15:27:58.113Z,1.90
2022-09-12T15:33:01.707Z,1.83
2022-09-12T15:38:05.409Z,2.08
2022-09-12T15:43:11.750Z,1.67
2022-09-12T15:48:15.384Z,3.50
2022-09-12T15:53:25.226Z,2.00
2022-09-12T15:58:30.194Z,3.17
2022-09-12T16:03:33.934Z,3.13
2022-09-12T16:08:37.940Z,5.28
2022-09-12T16:13:42.892Z,2.45
2022-09-12T16:18:46.830Z,3.35
2022-09-12T16:23:50.806Z,2.47
2022-09-12T16:28:58.022Z,2.90
2022-09-12T16:34:03.579Z,3.35
2022-09-12T16:39:26.877Z,2.67
2022-09-12T16:44:31.794Z,3.85
2022-09-12T16:49:35.305Z,5.32
2022-09-12T16:54:38.852Z,4.87
2022-09-12T16:59:43.787Z,3.67
2022-09-12T17:04:47.709Z,4.63
2022-09-12T17:09:51.766Z,3.97
2022-09-12T17:14:56.897Z,3.22
2022-09-12T17:20:02.982Z,5.55
2022-09-12T17:25:07.555Z,7.15
2022-09-12T17:30:13.800Z,5.25
2022-09-12T17:35:17.669Z,3.88
2022-09-12T17:40:37.120Z,5.00
2022-09-12T17:45:56.441Z,4.40
2022-09-12T17:58:54.063Z,6.20
2022-09-12T18:03:37.927Z,7.60
2022-09-12T18:09:03.032Z,8.77
2022-09-12T18:20:43.021Z,7.53
2022-09-12T18:26:02.077Z,8.60
2022-09-12T18:31:50.845Z,6.82
2022-09-12T18:38:07.576Z,6.63
2022-09-12T18:50:41.944Z,9.85
2022-09-12T19:13:13.850Z,11.90
2022-09-12T19:18:43.614Z,10.65
2022-09-12T19:24:13.260Z,11.07
2022-09-12T19:29:28.765Z,11.13
2022-09-12T19:34:44.955Z,10.13
2022-09-12T19:40:20.740Z,14.30
2022-09-12T19:52:06.779Z,18.08
2022-09-12T19:57:10.638Z,14.32
2022-09-12T20:02:14.425Z,10.88
2022-09-12T20:14:37.960Z,12.95
2022-09-12T20:19:47.570Z,12.75
2022-09-12T20:25:05.677Z,13.63
2022-09-12T20:30:14.805Z,10.43
2022-09-12T20:35:18.793Z,17.00
2022-09-12T20:40:22.390Z,12.83
2022-09-12T20:45:29.069Z,12.18
2022-09-12T20:50:32.733Z,13.00
2022-09-12T20:55:36.664Z,11.82
2022-09-12T21:13:00.661Z,17.02
2022-09-12T21:18:09.296Z,15.98
2022-09-12T21:23:14.876Z,13.95
2022-09-12T21:28:22.153Z,13.10
2022-09-12T21:33:29.619Z,14.30
2022-09-12T21:38:34.488Z,13.82
2022-09-12T21:43:40.953Z,12.68
2022-09-12T21:48:45.826Z,20.70
2022-09-12T21:58:53.380Z,16.07
2022-09-12T22:03:58.434Z,11.82
2022-09-12T22:09:01.986Z,13.90
2022-09-12T22:14:05.608Z,11.50
2022-09-12T22:19:10.623Z,10.77
2022-09-12T22:24:29.081Z,12.43
2022-09-12T22:29:33.103Z,11.60
2022-09-12T22:34:40.765Z,13.38
2022-09-12T22:39:44.313Z,11.30
2022-09-12T22:44:47.872Z,9.75
